createdAt,value
2019-01-15T00:00:25.081Z,0.60
2019-01-15T00:02:53.865Z,0.60
2019-01-15T00:05:22.555Z,0.60
2019-01-15T00:07:51.316Z,0.60
2019-01-15T00:10:20.036Z,0.50
2019-01-15T00:12:48.870Z,0.50
2019-01-15T00:15:17.597Z,0.50
2019-01-15T00:17:46.340Z,0.50
2019-01-15T00:20:15.864Z,0.50
2019-01-15T00:22:44.615Z,0.50
2019-01-15T00:25:13.495Z,0.50
2019-01-15T00:27:42.320Z,0.50
2019-01-15T00:30:14.315Z,0.50
2019-01-15T00:32:43.071Z,0.50
2019-01-15T00:35:11.791Z,0.50
2019-01-15T00:37:40.647Z,0.50
2019-01-15T00:40:12.436Z,0.50
2019-01-15T00:42:41.200Z,0.50
2019-01-15T00:45:11.196Z,0.50
2019-01-15T00:47:39.956Z,0.50
2019-01-15T00:50:11.393Z,0.50
2019-01-15T00:52:40.146Z,0.50
2019-01-15T00:55:10.863Z,0.50
2019-01-15T00:57:39.615Z,0.50
2019-01-15T01:00:22.212Z,0.50
2019-01-15T01:02:51.369Z,0.40
2019-01-15T01:05:20.967Z,0.50
2019-01-15T01:07:49.819Z,0.50
2019-01-15T01:10:18.911Z,0.50
2019-01-15T01:13:07.008Z,0.50
2019-01-15T01:15:35.744Z,0.50
2019-01-15T01:18:04.507Z,0.50
2019-01-15T01:20:34.519Z,0.50
2019-01-15T01:23:03.271Z,0.50
2019-01-15T01:25:32.014Z,0.50
2019-01-15T01:28:00.858Z,0.60
2019-01-15T01:30:29.580Z,0.60
2019-01-15T01:32:58.461Z,0.50
2019-01-15T01:35:27.134Z,0.50
2019-01-15T01:37:56.003Z,0.60
2019-01-15T01:40:24.723Z,0.60
2019-01-15T01:42:53.547Z,0.60
2019-01-15T01:45:22.276Z,0.60
2019-01-15T01:47:51.023Z,0.60
2019-01-15T01:50:19.751Z,0.60
2019-01-15T01:52:48.511Z,0.60
2019-01-15T01:55:17.255Z,0.60
2019-01-15T01:57:45.978Z,0.60
2019-01-15T02:00:19.515Z,0.70
2019-01-15T02:02:48.239Z,0.60
2019-01-15T02:05:17.066Z,0.60
2019-01-15T02:07:45.811Z,0.70
2019-01-15T02:10:18.990Z,0.60
2019-01-15T02:12:47.721Z,0.60
2019-01-15T02:15:19.207Z,0.60
2019-01-15T02:17:47.927Z,0.60
2019-01-15T02:20:18.880Z,0.60
2019-01-15T02:22:48.099Z,0.50
2019-01-15T02:25:16.852Z,0.60
2019-01-15T02:27:47.223Z,0.60
2019-01-15T02:30:18.185Z,0.60
2019-01-15T02:32:47.116Z,0.60
2019-01-15T02:35:16.149Z,0.60
2019-01-15T02:37:45.511Z,0.60
2019-01-15T02:40:17.987Z,0.50
2019-01-15T02:42:48.187Z,0.60
2019-01-15T02:45:19.626Z,0.60
2019-01-15T02:47:48.507Z,0.60
2019-01-15T02:50:19.064Z,0.50
2019-01-15T02:52:47.786Z,0.60
2019-01-15T02:55:16.536Z,0.60
2019-01-15T02:57:45.460Z,0.70
2019-01-15T03:00:19.631Z,0.70
2019-01-15T03:02:48.351Z,0.60
2019-01-15T03:05:17.271Z,0.60
2019-01-15T03:07:46.098Z,0.50
2019-01-15T03:10:35.829Z,0.40
2019-01-15T03:13:04.731Z,0.40
2019-01-15T03:15:33.488Z,0.40
2019-01-15T03:18:02.286Z,0.40
2019-01-15T03:20:31.040Z,0.40
2019-01-15T03:22:59.755Z,0.40
2019-01-15T03:25:28.512Z,0.40
2019-01-15T03:27:58.531Z,0.40
2019-01-15T03:30:27.288Z,0.50
2019-01-15T03:32:56.018Z,0.50
2019-01-15T03:35:24.769Z,0.50
2019-01-15T03:37:53.498Z,0.50
2019-01-15T03:40:23.952Z,0.60
2019-01-15T03:42:52.792Z,0.60
2019-01-15T03:45:21.550Z,0.50
2019-01-15T03:47:50.372Z,0.60
2019-01-15T03:50:19.208Z,0.50
2019-01-15T03:52:47.941Z,0.50
2019-01-15T03:55:18.233Z,0.50
2019-01-15T03:57:47.154Z,0.50
2019-01-15T04:00:21.232Z,0.50
2019-01-15T04:02:50.223Z,0.50
2019-01-15T04:05:19.252Z,0.50
2019-01-15T04:07:49.615Z,0.40
2019-01-15T04:10:20.098Z,0.30
2019-01-15T04:12:48.799Z,0.20
2019-01-15T04:15:17.616Z,0.00
2019-01-15T04:17:46.371Z,-0.10
2019-01-15T04:20:16.867Z,-0.10
2019-01-15T04:22:45.731Z,-0.10
2019-01-15T04:25:15.505Z,0.00
2019-01-15T04:27:44.285Z,-0.10
2019-01-15T04:30:21.147Z,0.00
2019-01-15T04:32:50.025Z,0.10
2019-01-15T04:35:18.758Z,0.00
2019-01-15T04:37:47.505Z,0.00
2019-01-15T04:40:18.634Z,-0.10
2019-01-15T04:42:47.691Z,0.00
2019-01-15T04:45:20.838Z,0.10
2019-01-15T04:47:55.367Z,0.00
2019-01-15T04:50:23.719Z,0.00
2019-01-15T04:52:54.086Z,0.10
2019-01-15T04:55:22.835Z,0.10
2019-01-15T04:57:51.588Z,0.10
2019-01-15T05:03:00.954Z,0.10
2019-01-15T05:05:29.700Z,0.00
2019-01-15T05:07:58.449Z,0.10
2019-01-15T05:10:27.198Z,0.00
2019-01-15T05:12:55.937Z,0.00
2019-01-15T05:15:24.775Z,0.10
2019-01-15T05:17:53.503Z,0.10
2019-01-15T05:20:22.328Z,0.10
2019-01-15T05:22:51.064Z,0.10
2019-01-15T05:25:21.425Z,0.10
2019-01-15T05:27:50.136Z,0.10
2019-01-15T05:30:21.296Z,0.20
2019-01-15T05:32:50.054Z,0.20
2019-01-15T05:35:18.777Z,0.20
2019-01-15T05:37:47.501Z,0.30
2019-01-15T05:40:17.154Z,0.30
2019-01-15T05:42:51.785Z,0.30
2019-01-15T05:45:23.997Z,0.40
2019-01-15T05:47:53.977Z,0.40
2019-01-15T05:50:24.367Z,0.40
2019-01-15T05:52:53.120Z,0.40
2019-01-15T05:55:22.903Z,0.40
2019-01-15T05:57:51.831Z,0.40
2019-01-15T06:00:20.682Z,0.40
2019-01-15T06:02:50.896Z,0.50
2019-01-15T06:05:21.659Z,0.50
2019-01-15T06:08:04.176Z,0.50
2019-01-15T06:10:24.170Z,0.50
2019-01-15T06:12:53.099Z,0.60
2019-01-15T06:15:21.888Z,0.60
2019-01-15T06:17:50.644Z,0.50
2019-01-15T06:20:20.564Z,0.50
2019-01-15T06:22:49.431Z,0.60
2019-01-15T06:25:18.305Z,0.60
2019-01-15T06:27:47.039Z,0.60
2019-01-15T06:30:18.168Z,0.60
2019-01-15T06:32:46.915Z,0.60
2019-01-15T06:35:15.736Z,0.50
2019-01-15T06:37:44.560Z,0.50
2019-01-15T06:40:15.664Z,0.60
2019-01-15T06:42:44.433Z,0.60
2019-01-15T06:45:16.028Z,0.60
2019-01-15T06:47:44.780Z,0.60
2019-01-15T06:50:15.207Z,0.60
2019-01-15T06:52:44.755Z,0.60
2019-01-15T06:55:18.323Z,0.60
2019-01-15T06:57:47.275Z,0.60
2019-01-15T07:00:26.877Z,0.60
2019-01-15T07:02:55.724Z,0.70
2019-01-15T07:05:24.650Z,0.70
2019-01-15T07:07:53.486Z,0.60
2019-01-15T07:10:37.016Z,0.60
2019-01-15T07:13:05.964Z,0.70
2019-01-15T07:15:34.687Z,0.60
2019-01-15T07:18:03.439Z,0.60
2019-01-15T07:20:32.163Z,0.60
2019-01-15T07:23:00.915Z,0.70
2019-01-15T07:25:30.435Z,0.70
2019-01-15T07:27:59.191Z,0.70
2019-01-15T07:30:30.864Z,0.80
2019-01-15T07:32:59.615Z,0.70
2019-01-15T07:35:28.343Z,0.70
2019-01-15T07:37:57.096Z,0.80
2019-01-15T07:40:25.828Z,0.80
2019-01-15T07:42:54.631Z,0.80
2019-01-15T07:45:23.367Z,0.80
2019-01-15T07:47:52.117Z,0.90
2019-01-15T07:50:21.847Z,0.90
2019-01-15T07:52:50.904Z,1.00
2019-01-15T07:55:21.424Z,1.00
2019-01-15T07:57:50.184Z,0.90
2019-01-15T08:00:25.535Z,0.90
2019-01-15T08:02:54.996Z,0.90
2019-01-15T08:05:25.796Z,1.00
2019-01-15T08:07:54.540Z,1.00
2019-01-15T08:10:23.260Z,1.00
2019-01-15T08:12:52.011Z,1.10
2019-01-15T08:15:22.740Z,1.10
2019-01-15T08:17:51.491Z,1.10
2019-01-15T08:20:20.384Z,1.10
2019-01-15T08:22:49.172Z,1.10
2019-01-15T08:25:18.152Z,1.20
2019-01-15T08:27:47.122Z,1.20
2019-01-15T08:30:21.524Z,1.10
2019-01-15T08:32:50.275Z,1.20
2019-01-15T08:35:19.003Z,1.20
2019-01-15T08:37:47.760Z,1.30
2019-01-15T08:40:18.283Z,1.30
2019-01-15T08:42:47.203Z,1.30
2019-01-15T08:45:17.362Z,1.30
2019-01-15T08:47:47.757Z,1.30
2019-01-15T08:50:19.488Z,1.40
2019-01-15T08:52:48.212Z,1.40
2019-01-15T08:55:17.243Z,1.40
2019-01-15T08:57:46.084Z,1.40
2019-01-15T09:00:15.712Z,1.40
2019-01-15T09:02:44.509Z,1.40
2019-01-15T09:05:13.257Z,1.50
2019-01-15T09:08:01.252Z,1.50
2019-01-15T09:10:30.005Z,1.50
2019-01-15T09:12:58.735Z,1.50
2019-01-15T09:15:27.603Z,1.50
2019-01-15T09:17:56.326Z,1.50
2019-01-15T09:20:25.184Z,1.50
2019-01-15T09:22:53.909Z,1.60
2019-01-15T09:25:22.731Z,1.70
2019-01-15T09:27:51.451Z,1.70
2019-01-15T09:30:22.384Z,1.60
2019-01-15T09:32:51.707Z,1.60
2019-01-15T09:35:20.776Z,1.60
2019-01-15T09:37:50.784Z,1.60
2019-01-15T09:40:23.684Z,1.60
2019-01-15T09:42:52.605Z,1.60
2019-01-15T09:45:22.768Z,1.70
2019-01-15T09:48:04.804Z,1.60
2019-01-15T09:50:33.564Z,1.60
2019-01-15T09:53:03.752Z,1.60
2019-01-15T09:55:32.473Z,1.70
2019-01-15T09:58:01.222Z,1.70
2019-01-15T10:00:30.168Z,1.70
2019-01-15T10:02:58.890Z,1.80
2019-01-15T10:05:27.639Z,1.80
2019-01-15T10:07:56.436Z,1.90
2019-01-15T10:10:25.184Z,1.90
2019-01-15T10:12:53.950Z,1.90
2019-01-15T10:15:23.340Z,1.90
2019-01-15T10:17:52.043Z,1.90
2019-01-15T10:20:20.764Z,1.90
2019-01-15T10:22:49.917Z,2.10
2019-01-15T10:25:26.332Z,2.20
2019-01-15T10:27:55.839Z,2.20
2019-01-15T10:30:43.053Z,2.10
2019-01-15T10:33:20.680Z,2.20
2019-01-15T10:35:55.384Z,2.20
2019-01-15T10:38:26.310Z,2.30
2019-01-15T10:40:56.839Z,2.30
2019-01-15T10:43:26.558Z,2.30
2019-01-15T10:45:55.889Z,2.30
2019-01-15T10:48:24.941Z,2.30
2019-01-15T10:50:53.739Z,2.40
2019-01-15T10:53:22.493Z,2.40
2019-01-15T10:55:51.211Z,2.50
2019-01-15T10:58:19.987Z,2.50
2019-01-15T11:00:48.980Z,2.60
2019-01-15T11:03:17.739Z,2.60
2019-01-15T11:05:46.473Z,2.80
2019-01-15T11:08:15.323Z,2.90
2019-01-15T11:10:44.089Z,2.90
2019-01-15T11:13:12.880Z,3.00
2019-01-15T11:15:43.440Z,3.00
2019-01-15T11:18:12.000Z,3.10
2019-01-15T11:20:40.718Z,3.20
2019-01-15T11:23:09.647Z,3.20
2019-01-15T11:25:38.464Z,3.20
2019-01-15T11:28:07.224Z,3.20
2019-01-15T11:30:35.952Z,3.30
2019-01-15T11:33:04.699Z,3.30
2019-01-15T11:35:33.423Z,3.30
2019-01-15T11:38:02.181Z,3.30
2019-01-15T11:40:30.912Z,3.30
2019-01-15T11:42:59.664Z,3.40
2019-01-15T11:45:28.384Z,3.30
2019-01-15T11:47:57.140Z,3.30
2019-01-15T11:50:25.859Z,3.30
2019-01-15T11:52:54.607Z,3.40
2019-01-15T11:55:23.903Z,3.40
2019-01-15T11:57:52.751Z,3.50
2019-01-15T12:00:28.783Z,3.40
2019-01-15T12:03:02.152Z,3.50
2019-01-15T12:05:47.828Z,3.50
2019-01-15T12:08:18.188Z,3.50
2019-01-15T12:11:04.987Z,3.50
2019-01-15T12:13:50.679Z,3.60
2019-01-15T12:16:21.035Z,3.60
2019-01-15T12:18:57.183Z,3.60
2019-01-15T12:21:30.586Z,3.70
2019-01-15T12:24:09.836Z,3.70
2019-01-15T12:26:42.980Z,3.70
2019-01-15T12:29:13.374Z,3.80
2019-01-15T12:31:43.739Z,3.70
2019-01-15T12:34:20.599Z,3.70
2019-01-15T12:36:57.162Z,3.80
2019-01-15T12:39:36.372Z,3.80
2019-01-15T12:42:06.770Z,3.80
2019-01-15T12:44:53.643Z,3.80
2019-01-15T12:47:30.008Z,3.80
2019-01-15T12:50:03.523Z,3.80
2019-01-15T12:52:50.116Z,3.80
2019-01-15T12:55:20.512Z,3.80
2019-01-15T12:57:59.276Z,3.70
2019-01-15T13:00:29.672Z,3.70
2019-01-15T13:03:06.259Z,3.70
2019-01-15T13:05:42.843Z,3.70
2019-01-15T13:08:24.957Z,3.80
2019-01-15T13:10:55.352Z,3.80
2019-01-15T13:13:41.974Z,3.70
2019-01-15T13:16:12.376Z,3.70
2019-01-15T13:18:48.521Z,3.50
2019-01-15T13:21:18.908Z,3.50
2019-01-15T13:23:49.275Z,3.50
2019-01-15T13:26:35.768Z,3.40
2019-01-15T13:29:13.231Z,3.40
2019-01-15T13:32:00.076Z,3.30
2019-01-15T13:34:36.633Z,3.30
2019-01-15T13:37:07.023Z,3.40
2019-01-15T13:39:55.795Z,3.30
2019-01-15T13:42:28.857Z,3.30
2019-01-15T13:45:02.175Z,3.30
2019-01-15T13:47:35.327Z,3.30
2019-01-15T13:50:19.858Z,3.30
2019-01-15T13:52:53.243Z,3.30
2019-01-15T13:55:27.958Z,3.30
2019-01-15T13:58:04.436Z,3.20
2019-01-15T14:00:34.828Z,3.20
2019-01-15T14:03:05.200Z,3.30
2019-01-15T14:05:41.398Z,3.30
2019-01-15T14:08:11.808Z,3.40
2019-01-15T14:10:42.268Z,3.40
2019-01-15T14:13:28.004Z,3.40
2019-01-15T14:16:04.419Z,3.30
2019-01-15T14:18:40.944Z,3.30
2019-01-15T14:21:20.563Z,3.20
2019-01-15T14:23:53.608Z,3.20
2019-01-15T14:26:30.028Z,3.10
2019-01-15T14:29:12.772Z,3.00
2019-01-15T14:32:01.607Z,3.00
2019-01-15T14:34:40.756Z,3.00
2019-01-15T14:37:11.254Z,3.00
2019-01-15T14:39:50.555Z,3.00
2019-01-15T14:42:23.692Z,3.00
2019-01-15T14:44:54.060Z,3.10
2019-01-15T14:47:33.448Z,3.00
2019-01-15T14:50:22.059Z,3.00
2019-01-15T14:53:07.884Z,3.00
2019-01-15T14:55:38.223Z,3.00
2019-01-15T14:58:24.136Z,3.00
2019-01-15T15:01:00.228Z,3.10
2019-01-15T15:03:30.616Z,3.10
2019-01-15T15:06:13.056Z,3.10
2019-01-15T15:08:59.972Z,3.00
2019-01-15T15:11:33.303Z,3.00
2019-01-15T15:14:03.706Z,3.00
2019-01-15T15:16:43.276Z,3.00
2019-01-15T15:19:33.215Z,2.90
2019-01-15T15:22:03.572Z,2.90
2019-01-15T15:24:52.364Z,2.90
2019-01-15T15:27:22.740Z,2.90
2019-01-15T15:30:05.451Z,2.90
2019-01-15T15:32:44.580Z,2.90
2019-01-15T15:35:17.780Z,2.90
2019-01-15T15:37:48.149Z,2.90
2019-01-15T15:40:37.008Z,2.90
2019-01-15T15:43:16.115Z,2.80
2019-01-15T15:45:46.513Z,2.80
2019-01-15T15:48:19.631Z,2.80
2019-01-15T15:50:53.015Z,2.90
2019-01-15T15:53:39.732Z,2.80
2019-01-15T15:56:16.592Z,2.80
2019-01-15T15:58:56.436Z,2.80
2019-01-15T16:01:43.384Z,2.80
2019-01-15T16:04:25.847Z,2.70
2019-01-15T16:07:02.292Z,2.80
2019-01-15T16:09:35.692Z,2.80
2019-01-15T16:12:09.340Z,2.80
2019-01-15T16:14:48.791Z,2.80
2019-01-15T16:17:25.328Z,2.80
2019-01-15T16:19:55.730Z,2.80
2019-01-15T16:22:28.799Z,2.80
2019-01-15T16:25:11.232Z,2.80
2019-01-15T16:27:47.843Z,2.80
2019-01-15T16:30:37.726Z,2.80
2019-01-15T16:33:11.078Z,2.90
2019-01-15T16:35:44.414Z,2.90
2019-01-15T16:38:17.826Z,2.90
2019-01-15T16:41:04.800Z,2.90
2019-01-15T16:43:37.727Z,2.90
2019-01-15T16:46:26.445Z,2.90
2019-01-15T16:49:00.731Z,2.90
2019-01-15T16:51:31.123Z,2.90
2019-01-15T16:54:05.006Z,2.90
2019-01-15T16:56:35.429Z,2.90
2019-01-15T16:59:12.026Z,2.90
2019-01-15T17:01:54.465Z,3.00
2019-01-15T17:04:34.095Z,3.00
2019-01-15T17:07:13.715Z,3.00
2019-01-15T17:09:52.924Z,2.90
2019-01-15T17:12:28.770Z,2.90
2019-01-15T17:15:14.523Z,2.90
2019-01-15T17:18:01.308Z,2.90
2019-01-15T17:20:37.623Z,2.80
2019-01-15T17:23:08.013Z,2.90
2019-01-15T17:25:53.600Z,2.90
2019-01-15T17:28:40.602Z,3.00
2019-01-15T17:31:10.967Z,2.90
2019-01-15T17:33:44.131Z,2.90
2019-01-15T17:36:14.495Z,3.00
2019-01-15T17:38:44.903Z,3.00
2019-01-15T17:41:31.217Z,3.00
2019-01-15T17:44:04.244Z,2.90
2019-01-15T17:46:49.668Z,3.00
2019-01-15T17:49:20.064Z,2.90
2019-01-15T17:51:56.151Z,3.00
2019-01-15T17:54:42.748Z,3.00
2019-01-15T17:57:19.231Z,3.00
2019-01-15T17:59:52.361Z,3.10
2019-01-15T18:02:22.733Z,3.10
2019-01-15T18:04:53.134Z,3.10
2019-01-15T18:07:23.500Z,3.00
2019-01-15T18:10:09.212Z,3.00
2019-01-15T18:12:58.003Z,3.00
2019-01-15T18:15:28.404Z,3.10
2019-01-15T18:18:17.241Z,3.00
2019-01-15T18:21:03.647Z,3.00
2019-01-15T18:23:43.375Z,3.00
2019-01-15T18:26:19.675Z,2.90
2019-01-15T18:28:58.902Z,3.00
2019-01-15T18:31:44.539Z,3.00
2019-01-15T18:34:15.923Z,3.00
2019-01-15T18:36:58.507Z,3.00
2019-01-15T18:39:34.849Z,2.90
2019-01-15T18:42:13.932Z,2.90
2019-01-15T18:44:44.396Z,2.90
2019-01-15T18:47:31.060Z,2.90
2019-01-15T18:50:10.900Z,2.90
2019-01-15T18:52:41.315Z,2.80
2019-01-15T18:55:11.768Z,2.90
2019-01-15T18:57:51.492Z,2.90
2019-01-15T19:00:30.954Z,2.90
2019-01-15T19:03:16.190Z,2.80
2019-01-15T19:05:46.563Z,2.80
2019-01-15T19:08:17.007Z,2.80
2019-01-15T19:10:52.757Z,2.80
2019-01-15T19:13:25.987Z,2.80
2019-01-15T19:15:56.329Z,2.80
2019-01-15T19:18:35.291Z,2.80
2019-01-15T19:21:08.376Z,2.80
2019-01-15T19:23:44.783Z,2.70
2019-01-15T19:26:20.950Z,2.70
2019-01-15T19:29:08.714Z,2.80
2019-01-15T19:31:45.296Z,2.70
2019-01-15T19:34:33.873Z,2.70
2019-01-15T19:37:04.292Z,2.70
2019-01-15T19:39:36.281Z,2.70
2019-01-15T19:42:06.927Z,2.70
2019-01-15T19:44:38.548Z,2.70
2019-01-15T19:47:25.180Z,2.70
2019-01-15T19:50:11.945Z,2.70
2019-01-15T19:52:57.586Z,2.70
2019-01-15T19:55:41.222Z,2.60
2019-01-15T19:58:14.372Z,2.60
2019-01-15T20:00:47.744Z,2.50
2019-01-15T20:03:34.521Z,2.60
2019-01-15T20:06:35.171Z,2.60
2019-01-15T20:09:23.190Z,2.50
2019-01-15T20:12:12.501Z,2.50
2019-01-15T20:14:44.119Z,2.40
2019-01-15T20:17:18.739Z,2.40
2019-01-15T20:19:51.568Z,2.30
2019-01-15T20:22:22.444Z,2.30
2019-01-15T20:24:54.564Z,2.30
2019-01-15T20:27:27.992Z,2.30
2019-01-15T20:30:01.804Z,2.30
2019-01-15T20:32:38.092Z,2.30
2019-01-15T20:35:21.191Z,2.30
2019-01-15T20:37:54.244Z,2.20
2019-01-15T20:40:38.122Z,2.20
2019-01-15T20:43:24.235Z,2.10
2019-01-15T20:46:00.529Z,2.20
2019-01-15T20:48:46.629Z,2.20
2019-01-15T20:51:20.247Z,2.20
2019-01-15T20:54:10.422Z,2.20
2019-01-15T20:56:41.119Z,2.20
2019-01-15T20:59:13.650Z,2.10
2019-01-15T21:01:47.827Z,2.10
2019-01-15T21:04:35.047Z,2.10
2019-01-15T21:07:21.623Z,2.00
2019-01-15T21:09:58.200Z,2.10
2019-01-15T21:12:45.126Z,2.10
2019-01-15T21:15:23.525Z,2.10
2019-01-15T21:18:09.315Z,2.20
2019-01-15T21:20:51.550Z,2.20
2019-01-15T21:23:27.988Z,2.10
2019-01-15T21:26:11.152Z,2.00
2019-01-15T21:28:57.945Z,2.00
2019-01-15T21:31:37.331Z,1.90
2019-01-15T21:34:07.733Z,1.90
2019-01-15T21:36:54.667Z,1.90
2019-01-15T21:39:41.549Z,1.80
2019-01-15T21:42:29.401Z,1.80
2019-01-15T21:45:05.532Z,1.80
2019-01-15T21:47:40.334Z,1.80
2019-01-15T21:50:26.064Z,1.80
2019-01-15T21:53:12.883Z,1.80
2019-01-15T21:55:43.304Z,1.80
2019-01-15T21:58:16.427Z,1.70
2019-01-15T22:01:05.564Z,1.70
2019-01-15T22:03:54.009Z,1.60
2019-01-15T22:06:24.410Z,1.50
2019-01-15T22:08:54.779Z,1.50
2019-01-15T22:11:25.173Z,1.50
2019-01-15T22:13:56.462Z,1.50
2019-01-15T22:16:45.147Z,1.50
2019-01-15T22:19:24.339Z,1.50
2019-01-15T22:21:54.751Z,1.50
2019-01-15T22:24:25.139Z,1.40
2019-01-15T22:27:10.883Z,1.40
2019-01-15T22:29:58.039Z,1.40
2019-01-15T22:32:34.308Z,1.30
2019-01-15T22:35:10.840Z,1.40
2019-01-15T22:37:53.575Z,1.40
2019-01-15T22:40:23.940Z,1.40
2019-01-15T22:43:03.550Z,1.30
2019-01-15T22:45:39.921Z,1.30
2019-01-15T22:48:17.970Z,1.30
2019-01-15T22:51:00.417Z,1.30
2019-01-15T22:53:33.736Z,1.20
2019-01-15T22:56:09.928Z,1.10
2019-01-15T22:58:49.087Z,1.10
2019-01-15T23:01:25.056Z,1.00
2019-01-15T23:03:55.428Z,1.00
2019-01-15T23:06:35.015Z,1.00
2019-01-15T23:09:23.395Z,0.90
2019-01-15T23:12:10.348Z,0.80
2019-01-15T23:14:57.177Z,0.80
2019-01-15T23:17:39.875Z,0.80
2019-01-15T23:20:29.732Z,0.80
2019-01-15T23:23:00.108Z,0.70
2019-01-15T23:25:39.076Z,0.70
2019-01-15T23:28:12.204Z,0.70
2019-01-15T23:30:42.599Z,0.60
2019-01-15T23:33:12.973Z,0.60
2019-01-15T23:35:59.951Z,0.60
2019-01-15T23:38:30.334Z,0.60
2019-01-15T23:41:06.955Z,0.60
2019-01-15T23:43:37.319Z,0.50
2019-01-15T23:46:10.744Z,0.50
2019-01-15T23:48:44.165Z,0.50
2019-01-15T23:51:32.764Z,0.40
2019-01-15T23:54:09.355Z,0.40
2019-01-15T23:56:51.682Z,0.40
2019-01-15T23:59:38.443Z,0.30
